sensor_id;sensor_type;location;lat;lon;timestamp;temperature;humidity
21563;DHT22;10942;47.894;11.424;2023-06-22T03:58:22;21.30;99.90
21563;DHT22;10942;47.894;11.424;2023-06-22T04:00:49;21.20;99.90
21563;DHT22;10942;47.894;11.424;2023-06-22T04:03:15;21.00;99.90
21563;DHT22;10942;47.894;11.424;2023-06-22T04:05:41;21.00;99.90
21563;DHT22;10942;47.894;11.424;2023-06-22T04:08:07;21.00;99.90
21563;DHT22;10942;47.894;11.424;2023-06-22T04:10:33;21.00;99.90
21563;DHT22;10942;47.894;11.424;2023-06-22T04:12:59;21.10;99.90
21563;DHT22;10942;47.894;11.424;2023-06-22T04:15:25;21.00;99.90
21563;DHT22;10942;47.894;11.424;2023-06-22T04:17:51;21.10;99.90
21563;DHT22;10942;47.894;11.424;2023-06-22T04:20:16;21.10;99.90
21563;DHT22;10942;47.894;11.424;2023-06-22T04:22:42;21.10;99.90
21563;DHT22;10942;47.894;11.424;2023-06-22T04:25:08;21.30;99.90
21563;DHT22;10942;47.894;11.424;2023-06-22T04:27:34;21.30;99.90
21563;DHT22;10942;47.894;11.424;2023-06-22T04:30:06;21.30;99.90
21563;DHT22;10942;47.894;11.424;2023-06-22T04:32:36;21.40;99.90
21563;DHT22;10942;47.894;11.424;2023-06-22T04:35:03;21.40;99.90
21563;DHT22;10942;47.894;11.424;2023-06-22T04:37:30;21.40;99.90
21563;DHT22;10942;47.894;11.424;2023-06-22T04:39:56;21.50;99.90
21563;DHT22;10942;47.894;11.424;2023-06-22T04:42:22;21.50;99.90
21563;DHT22;10942;47.894;11.424;2023-06-22T04:44:48;21.40;99.90
21563;DHT22;10942;47.894;11.424;2023-06-22T04:47:13;21.40;99.90
21563;DHT22;10942;47.894;11.424;2023-06-22T04:49:39;21.50;99.90
21563;DHT22;10942;47.894;11.424;2023-06-22T04:52:10;21.20;99.90
21563;DHT22;10942;47.894;11.424;2023-06-22T04:54:37;21.10;99.90
21563;DHT22;10942;47.894;11.424;2023-06-22T04:57:04;21.10;99.90
21563;DHT22;10942;47.894;11.424;2023-06-22T04:59:35;21.30;99.90
21563;DHT22;10942;47.894;11.424;2023-06-22T05:02:02;21.40;99.90
21563;DHT22;10942;47.894;11.424;2023-06-22T05:04:29;21.40;99.90
21563;DHT22;10942;47.894;11.424;2023-06-22T05:06:57;21.70;99.90
21563;DHT22;10942;47.894;11.424;2023-06-22T05:09:23;21.80;99.90
21563;DHT22;10942;47.894;11.424;2023-06-22T05:11:50;21.70;99.90
21563;DHT22;10942;47.894;11.424;2023-06-22T05:14:16;21.90;99.90
21563;DHT22;10942;47.894;11.424;2023-06-22T05:16:42;22.10;99.90
21563;DHT22;10942;47.894;11.424;2023-06-22T05:19:08;22.40;99.90
21563;DHT22;10942;47.894;11.424;2023-06-22T05:21:34;22.50;99.90
21563;DHT22;10942;47.894;11.424;2023-06-22T05:24:00;22.70;99.90
21563;DHT22;10942;47.894;11.424;2023-06-22T05:26:32;22.80;99.90
21563;DHT22;10942;47.894;11.424;2023-06-22T05:29:00;23.00;99.90
21563;DHT22;10942;47.894;11.424;2023-06-22T05:31:26;23.40;99.90
21563;DHT22;10942;47.894;11.424;2023-06-22T05:33:53;23.70;99.90
21563;DHT22;10942;47.894;11.424;2023-06-22T05:36:19;23.60;99.90
21563;DHT22;10942;47.894;11.424;2023-06-22T05:41:13;24.40;99.90
21563;DHT22;10942;47.894;11.424;2023-06-22T05:46:05;25.30;99.90
21563;DHT22;10942;47.894;11.424;2023-06-22T05:48:31;26.20;99.90
21563;DHT22;10942;47.894;11.424;2023-06-22T05:50:57;26.20;99.90
21563;DHT22;10942;47.894;11.424;2023-06-22T05:53:23;26.40;99.90
21563;DHT22;10942;47.894;11.424;2023-06-22T05:55:49;26.60;99.90
21563;DHT22;10942;47.894;11.424;2023-06-22T05:58:15;27.40;99.90
21563;DHT22;10942;47.894;11.424;2023-06-22T06:03:08;28.40;99.90
